createdAt,value
2023-09-13T00:02:37.700Z,99903.91
2023-09-13T00:07:43.228Z,99897.32
2023-09-13T00:13:03.238Z,99898.13
2023-09-13T00:18:09.659Z,99894.52
2023-09-13T00:23:15.663Z,99890.38
2023-09-13T00:28:20.967Z,99889.87
2023-09-13T00:33:31.222Z,99889.35
2023-09-13T00:38:38.584Z,99888.86
2023-09-13T00:43:46.624Z,99891.89
2023-09-13T00:49:02.210Z,99893.90
2023-09-13T00:54:08.302Z,99895.35
2023-09-13T00:59:13.574Z,99893.26
2023-09-13T01:04:18.816Z,99895.20
2023-09-13T01:09:36.177Z,99898.34
2023-09-13T01:14:41.648Z,99893.36
2023-09-13T01:20:16.893Z,99895.87
2023-09-13T01:26:06.420Z,99884.98
2023-09-13T01:31:14.209Z,99879.67
2023-09-13T01:36:22.365Z,99872.52
2023-09-13T01:41:33.834Z,99868.84
2023-09-13T01:46:44.447Z,99866.73
2023-09-13T01:51:50.527Z,99868.12
2023-09-13T01:56:56.594Z,99866.44
2023-09-13T02:02:02.338Z,99860.92
2023-09-13T02:07:07.591Z,99862.19
2023-09-13T02:12:25.889Z,99865.95
2023-09-13T02:17:33.861Z,99868.35
2023-09-13T02:22:39.371Z,99875.68
2023-09-13T02:27:49.041Z,99882.08
2023-09-13T02:32:56.948Z,99882.46
2023-09-13T02:38:03.414Z,99882.32
2023-09-13T02:43:10.346Z,99878.43
2023-09-13T02:48:17.203Z,99874.66
2023-09-13T02:53:24.097Z,99872.13
2023-09-13T02:58:30.354Z,99872.33
2023-09-13T03:03:35.645Z,99866.92
2023-09-13T03:08:42.184Z,99860.27
2023-09-13T03:13:47.670Z,99859.55
2023-09-13T03:18:55.239Z,99861.97
2023-09-13T03:24:06.257Z,99862.17
2023-09-13T03:29:12.155Z,99859.85
2023-09-13T03:34:18.694Z,99854.71
2023-09-13T03:39:27.209Z,99851.48
2023-09-13T03:44:32.359Z,99849.33
2023-09-13T03:50:07.385Z,99852.16
2023-09-13T03:55:13.213Z,99852.36
2023-09-13T04:00:19.122Z,99841.48
2023-09-13T04:05:26.881Z,99841.13
2023-09-13T04:10:32.037Z,99839.09
2023-09-13T04:15:37.491Z,99841.91
2023-09-13T04:20:45.000Z,99848.15
2023-09-13T04:25:53.877Z,99846.80
2023-09-13T04:31:02.266Z,99844.01
2023-09-13T04:36:08.239Z,99843.94
2023-09-13T04:41:17.818Z,99845.90
2023-09-13T04:47:16.483Z,99843.20
2023-09-13T04:53:42.785Z,99845.35
2023-09-13T05:00:03.623Z,99851.32
2023-09-13T05:06:01.756Z,99851.87
2023-09-13T05:12:27.300Z,99859.46
2023-09-13T05:18:45.515Z,99851.77
2023-09-13T05:25:07.121Z,99854.76
2023-09-13T05:31:13.300Z,99856.16
2023-09-13T05:37:41.361Z,99859.11
2023-09-13T05:44:09.681Z,99860.21
2023-09-13T06:02:23.293Z,99858.29
2023-09-13T06:08:24.775Z,99850.83
2023-09-13T06:14:27.422Z,99850.30
2023-09-13T06:20:20.187Z,99843.40
2023-09-13T06:26:16.943Z,99852.05
2023-09-13T06:32:42.678Z,99856.58
2023-09-13T06:38:31.750Z,99848.89
2023-09-13T06:57:12.388Z,99863.05
2023-09-13T07:03:40.509Z,99864.17
2023-09-13T07:09:35.671Z,99872.02
2023-09-13T07:15:31.633Z,99866.48
2023-09-13T07:21:25.953Z,99864.91
2023-09-13T07:27:45.055Z,99862.02
2023-09-13T07:33:01.461Z,99867.47
2023-09-13T07:39:08.583Z,99890.98
2023-09-13T07:45:17.069Z,99886.80
2023-09-13T07:51:10.383Z,99886.73
2023-09-13T07:56:38.961Z,99889.70
2023-09-13T08:02:31.742Z,99883.20
2023-09-13T08:08:12.617Z,99877.91
2023-09-13T08:14:11.249Z,99878.31
2023-09-13T08:20:08.854Z,99880.83
2023-09-13T08:25:55.183Z,99873.31
2023-09-13T08:31:45.186Z,99887.37
2023-09-13T08:37:14.162Z,99882.30
2023-09-13T08:43:25.860Z,99880.03
2023-09-13T08:49:34.277Z,99880.19
2023-09-13T08:55:40.165Z,99877.27
2023-09-13T09:00:58.103Z,99871.84
2023-09-13T09:06:46.889Z,99856.27
2023-09-13T09:12:19.332Z,99847.73
2023-09-13T09:17:26.535Z,99848.88
2023-09-13T09:22:32.103Z,99852.86
2023-09-13T09:27:38.641Z,99850.09
2023-09-13T09:32:47.039Z,99840.52
2023-09-13T09:38:23.256Z,99831.20
2023-09-13T09:43:33.559Z,99825.27
2023-09-13T09:49:12.127Z,99831.91
2023-09-13T09:54:43.573Z,99836.85
2023-09-13T10:00:11.504Z,99850.64
2023-09-13T10:05:25.092Z,99854.63
2023-09-13T10:10:53.858Z,99856.98
2023-09-13T10:16:09.389Z,99862.17
2023-09-13T10:22:07.574Z,99861.63
2023-09-13T10:27:33.484Z,99861.29
2023-09-13T10:32:52.582Z,99865.13
2023-09-13T10:38:05.639Z,99864.06
2023-09-13T10:43:31.022Z,99858.75
2023-09-13T10:48:59.682Z,99850.06
2023-09-13T10:54:05.621Z,99847.61
2023-09-13T10:59:14.215Z,99848.16
2023-09-13T11:04:20.378Z,99849.92
2023-09-13T11:09:31.554Z,99869.71
2023-09-13T11:14:36.784Z,99867.68
2023-09-13T11:19:41.275Z,99857.30
2023-09-13T11:25:02.553Z,99854.92
2023-09-13T11:30:13.947Z,99852.00
2023-09-13T11:35:26.061Z,99853.48
2023-09-13T11:40:31.064Z,99852.39
2023-09-13T11:45:38.600Z,99854.73
2023-09-13T11:50:48.668Z,99862.98
2023-09-13T11:56:11.566Z,99859.91
2023-09-13T12:01:25.890Z,99858.48
2023-09-13T12:06:36.690Z,99872.01
2023-09-13T12:11:44.296Z,99878.29
2023-09-13T12:16:53.587Z,99884.40
2023-09-13T12:21:58.337Z,99895.05
2023-09-13T12:27:05.556Z,99881.13
2023-09-13T12:32:11.170Z,99859.02
2023-09-13T12:37:16.540Z,99863.20
2023-09-13T12:42:24.885Z,99858.70
2023-09-13T12:47:57.221Z,99850.08
2023-09-13T12:53:53.747Z,99853.09
2023-09-13T12:59:44.007Z,99851.04
2023-09-13T13:05:15.162Z,99856.80
2023-09-13T13:11:54.277Z,99880.27
2023-09-13T13:17:51.551Z,99877.20
2023-09-13T13:23:47.774Z,99860.02
2023-09-13T13:30:05.096Z,99851.13
2023-09-13T13:36:14.670Z,99854.66
2023-09-13T13:42:09.711Z,99858.48
2023-09-13T13:47:44.209Z,99860.17
2023-09-13T13:53:33.822Z,99864.00
2023-09-13T13:59:16.554Z,99869.67
2023-09-13T14:04:42.452Z,99881.23
2023-09-13T14:09:55.178Z,99888.71
2023-09-13T14:15:06.620Z,99892.91
2023-09-13T14:20:12.858Z,99888.52
2023-09-13T14:25:29.419Z,99893.65
2023-09-13T14:31:07.798Z,99899.27
2023-09-13T14:37:01.994Z,99898.52
2023-09-13T14:42:31.166Z,99898.77
2023-09-13T14:48:03.328Z,99907.69
2023-09-13T14:53:35.365Z,99914.58
2023-09-13T14:59:13.129Z,99917.67
2023-09-13T15:04:51.828Z,99914.96
2023-09-13T15:10:11.958Z,99928.73
2023-09-13T15:15:19.880Z,99929.64
2023-09-13T15:20:27.710Z,99929.70
2023-09-13T15:25:41.777Z,99921.08
2023-09-13T15:30:56.074Z,99918.30
2023-09-13T15:36:19.903Z,99913.05
2023-09-13T15:41:37.181Z,99916.95
2023-09-13T15:47:08.167Z,99915.80
2023-09-13T15:52:25.466Z,99916.39
2023-09-13T15:57:41.273Z,99916.08
2023-09-13T16:02:56.566Z,99918.80
2023-09-13T16:08:11.960Z,99918.73
2023-09-13T16:13:23.242Z,99923.40
2023-09-13T16:18:40.635Z,99928.02
2023-09-13T16:23:45.812Z,99929.68
2023-09-13T16:28:52.035Z,99929.65
2023-09-13T16:34:04.947Z,99932.05
2023-09-13T16:39:18.348Z,99937.15
2023-09-13T16:44:31.736Z,99947.08
2023-09-13T16:49:43.078Z,99944.10
2023-09-13T16:54:51.270Z,99954.32
2023-09-13T17:00:01.949Z,99964.06
2023-09-13T17:05:26.242Z,99970.30
2023-09-13T17:10:49.793Z,99979.23
2023-09-13T17:16:10.625Z,99987.52
2023-09-13T17:21:29.944Z,99999.81
2023-09-13T17:26:36.103Z,100010.32
2023-09-13T17:31:42.140Z,100023.77
2023-09-13T17:36:46.844Z,100034.70
2023-09-13T17:41:56.233Z,100035.30
2023-09-13T17:47:02.738Z,100047.47
2023-09-13T17:52:08.779Z,100051.65
2023-09-13T17:57:15.824Z,100065.29
2023-09-13T18:02:23.820Z,100072.72
2023-09-13T18:07:32.724Z,100074.53
2023-09-13T18:12:41.150Z,100084.00
2023-09-13T18:17:55.206Z,100091.17
2023-09-13T18:23:20.970Z,100100.64
2023-09-13T18:28:45.001Z,100100.61
2023-09-13T18:33:56.035Z,100107.46
2023-09-13T18:39:02.533Z,100106.46
2023-09-13T18:44:15.246Z,100107.83
2023-09-13T18:49:28.687Z,100111.56
2023-09-13T18:54:36.769Z,100117.92
2023-09-13T18:59:52.499Z,100121.63
2023-09-13T19:05:12.354Z,100129.23
2023-09-13T19:10:18.666Z,100135.55
2023-09-13T19:15:33.026Z,100133.20
2023-09-13T19:20:40.129Z,100134.13
2023-09-13T19:25:54.180Z,100131.02
2023-09-13T19:31:03.891Z,100141.31
2023-09-13T19:36:11.925Z,100141.41
2023-09-13T19:41:18.924Z,100142.57
2023-09-13T19:46:25.946Z,100142.57
2023-09-13T19:51:31.506Z,100142.25
2023-09-13T19:56:39.810Z,100146.91
2023-09-13T20:01:51.212Z,100152.77
2023-09-13T20:06:59.196Z,100156.48
2023-09-13T20:12:08.029Z,100165.68
2023-09-13T20:17:21.563Z,100173.27
2023-09-13T20:22:27.865Z,100178.78
2023-09-13T20:27:43.254Z,100174.03
2023-09-13T20:33:20.853Z,100168.52
2023-09-13T20:38:29.697Z,100179.23
2023-09-13T20:43:38.203Z,100192.29
2023-09-13T20:48:45.356Z,100201.80
2023-09-13T20:53:51.009Z,100212.73
2023-09-13T20:58:57.829Z,100225.87
2023-09-13T21:04:02.340Z,100236.89
2023-09-13T21:09:07.177Z,100239.98
2023-09-13T21:14:15.493Z,100239.20
2023-09-13T21:20:15.140Z,100243.83
2023-09-13T21:26:21.367Z,100251.27
2023-09-13T21:32:14.315Z,100256.91
2023-09-13T21:38:23.051Z,100267.17
2023-09-13T21:44:30.568Z,100273.54
2023-09-13T21:50:34.868Z,100277.32
2023-09-13T21:56:13.294Z,100286.98
2023-09-13T22:02:17.290Z,100290.48
2023-09-13T22:07:49.071Z,100286.28
2023-09-13T22:13:15.302Z,100294.73
2023-09-13T22:18:20.980Z,100302.77
2023-09-13T22:23:37.881Z,100309.05
2023-09-13T22:28:43.232Z,100315.02
2023-09-13T22:33:55.561Z,100317.73
2023-09-13T22:39:20.963Z,100319.36
2023-09-13T22:44:54.687Z,100326.63
2023-09-13T22:50:42.869Z,100325.52
2023-09-13T22:56:19.867Z,100324.54
2023-09-13T23:01:48.774Z,100325.98
2023-09-13T23:07:58.688Z,100323.39
2023-09-13T23:13:40.653Z,100323.13
2023-09-13T23:18:56.603Z,100324.30
2023-09-13T23:24:44.650Z,100319.48
2023-09-13T23:30:12.252Z,100321.37
2023-09-13T23:35:59.038Z,100321.23
2023-09-13T23:42:06.405Z,100324.80
2023-09-13T23:47:31.987Z,100321.13
2023-09-13T23:53:27.897Z,100321.31
2023-09-13T23:58:55.074Z,100325.78
